Aeroporto :
LOGIN :

Iscrizione | Disclaimer

   EN    FR    IT 

 










Sommario :    VFR   VFR Marginale   IFR   IFR Intensivo   IFR Molto Intensivo
Visibilità : 
Base nubi : 
>= 8 km
>= 3000ft
5 / 8 km
1000 / 3000 ft
1500m / 5 km
500 / 1000 ft
800 / 1500m
200 / 500 ft
< 800m
< 200 ft
Simboli :   Temporali  Nebbia  Neve Forte  Precipitazioni Forti  Vento > 20 kt
SIGMETs :   Varie  Temporali  Ghiacco  Turbolenza  Onda orograficha  Ceneri Vulcaniche






- Altitudine del aeroporto : 348 ft
- Codice IATA : LDV


LFRJ - Landivisiau

ULTIMO METAR :
  • 140530Z AUTO 12006KT 9999 RA NSC 12/11 Q1004 NOSIG

METARs OBSOLETI :
  • 140500Z AUTO 12007KT 9999 -RA ///TCU 12/11 Q1005
  • 140430Z AUTO 13005KT 9999 -RA SCT045 SCT082 BKN100 12/11 Q1005
  • 140400Z AUTO 14006KT 9999 FEW042 BKN096 OVC120 12/11 Q1006
  • 140330Z AUTO 14004KT 100V160 9999 -RA NSC 12/11 Q1006
  • 140300Z AUTO 15005KT 9999 -RA NSC 12/11 Q1006

TAF TAF LFRJ
Valido dal 14 a 06 ore il 14 a 15 ore UTC


140500Z 1406/1415 11005KT 9999 RA NSC
PROB40
TEMPO 1406/1412 SCT010
BECMG 1409/1411 BKN025
PROB30
TEMPO 1409/1412 SCT015TCU
BECMG 1412/1414 NSW BKN011



MetMap, La meteo Aeronautica in un colpo d'occhio ! - Copyright ORBIFLY Dicembre 2007 - Disclaimer

ORBIFLY MET'MAP TEAM :

Programmazione e sviluppo : Alexandra Zaïnal
Concezione e sviluppo : Baudouin d'Aumeries
Co-Programmazione e sviluppo : Marc-Olivier Méhu
Supporto tecnico e logistico : Manuel Goepfert
Aiuto per la traduzione : Arnaldo La Scala

Contatto : metmap@orbifly.com




FONTI E CREDITI :

   NOAA